Accueil
METAR-TAF:

METAR-TAF

Aéroports :

Marshfield, Massachusetts, États-Unis

latitude: 42-05-54N, longitude: 070-40-20W, altitude: 3 m

Observation

Le bulletin a été fait il y a 14 minutes, à 19:55 UTC
Vent 10 kt de ouest avec des rafales jusqu'à 21 kt, variant entre sud-ouest et nord/nord-ouest
Température 10°C
Humidité 40%
Pression 988 hPa
Visibilité: 16.1 km
Quelques nuages à une hauteur de 4700 ft
Quelques nuages à une hauteur de 7000 ft
Nuages épars à une hauteur de 10000 ft

METAR: KGHG 101955Z AUTO 28010G21KT 230V340 10SM FEW047 FEW070 SCT100 10/M03 A2917 RMK AO2

Heure: 16:09 (20:09 UTC)


TAF: absent

Observations et prévisions météorologiques de plus de 4000 aéroports (messages METAR et TAF).

Les stations disponibles sont représentées par des disques jaunes et rouges sur la carte.

Passer la souris dessus pour voir le nom de la station.

Cliquer dessus pour voir les observations et prévisions météorologiques.

Pour changer de carte: cliquez sur les boutons verts avec une croix noire pour zoomer, sur le bouton vert avec un tiret pour effectuer un zoom arrière, ou sur les flèches vertes pour les cartes adjacentes.


METAR-TAF: